sensor_id;sensor_type;location;lat;lon;timestamp;P1;durP1;ratioP1;P2;durP2;ratioP2
12556;SDS011;6344;49.932;8.308;2022-07-25T00:02:07;12.20;;;11.20;;
12556;SDS011;6344;49.932;8.308;2022-07-25T00:04:34;12.07;;;11.27;;
12556;SDS011;6344;49.932;8.308;2022-07-25T00:07:03;11.97;;;11.17;;
12556;SDS011;6344;49.932;8.308;2022-07-25T00:09:30;11.90;;;11.10;;
12556;SDS011;6344;49.932;8.308;2022-07-25T00:11:57;12.90;;;11.90;;
12556;SDS011;6344;49.932;8.308;2022-07-25T00:14:24;11.90;;;11.00;;
12556;SDS011;6344;49.932;8.308;2022-07-25T00:16:51;12.70;;;11.70;;
12556;SDS011;6344;49.932;8.308;2022-07-25T00:19:18;12.00;;;11.03;;
12556;SDS011;6344;49.932;8.308;2022-07-25T00:21:45;12.27;;;11.47;;
12556;SDS011;6344;49.932;8.308;2022-07-25T00:24:14;11.63;;;10.80;;
12556;SDS011;6344;49.932;8.308;2022-07-25T00:26:41;11.73;;;10.93;;
12556;SDS011;6344;49.932;8.308;2022-07-25T00:29:08;12.60;;;11.60;;
12556;SDS011;6344;49.932;8.308;2022-07-25T00:31:35;12.40;;;11.30;;
12556;SDS011;6344;49.932;8.308;2022-07-25T00:34:02;12.50;;;11.60;;
12556;SDS011;6344;49.932;8.308;2022-07-25T00:36:29;12.13;;;11.23;;
12556;SDS011;6344;49.932;8.308;2022-07-25T00:38:57;12.93;;;11.93;;
12556;SDS011;6344;49.932;8.308;2022-07-25T00:41:25;13.77;;;12.87;;
12556;SDS011;6344;49.932;8.308;2022-07-25T00:43:52;11.90;;;11.00;;
12556;SDS011;6344;49.932;8.308;2022-07-25T00:46:19;12.80;;;11.93;;
12556;SDS011;6344;49.932;8.308;2022-07-25T00:48:46;12.50;;;11.60;;
12556;SDS011;6344;49.932;8.308;2022-07-25T00:51:14;12.87;;;11.77;;
12556;SDS011;6344;49.932;8.308;2022-07-25T00:53:44;15.17;;;13.90;;
12556;SDS011;6344;49.932;8.308;2022-07-25T00:56:11;12.53;;;11.67;;
12556;SDS011;6344;49.932;8.308;2022-07-25T00:58:39;12.90;;;12.00;;
12556;SDS011;6344;49.932;8.308;2022-07-25T01:01:06;12.57;;;11.77;;
12556;SDS011;6344;49.932;8.308;2022-07-25T01:03:34;13.90;;;12.80;;
12556;SDS011;6344;49.932;8.308;2022-07-25T01:06:01;13.50;;;12.60;;
12556;SDS011;6344;49.932;8.308;2022-07-25T01:08:28;13.50;;;12.60;;
12556;SDS011;6344;49.932;8.308;2022-07-25T01:10:56;13.87;;;12.70;;
12556;SDS011;6344;49.932;8.308;2022-07-25T01:13:24;13.67;;;12.60;;
12556;SDS011;6344;49.932;8.308;2022-07-25T01:15:52;13.53;;;12.47;;
12556;SDS011;6344;49.932;8.308;2022-07-25T01:18:19;13.90;;;13.00;;
12556;SDS011;6344;49.932;8.308;2022-07-25T01:20:48;13.93;;;12.93;;
12556;SDS011;6344;49.932;8.308;2022-07-25T01:23:15;14.30;;;13.00;;
12556;SDS011;6344;49.932;8.308;2022-07-25T01:25:42;13.60;;;12.50;;
12556;SDS011;6344;49.932;8.308;2022-07-25T01:28:09;12.87;;;11.97;;
12556;SDS011;6344;49.932;8.308;2022-07-25T01:30:36;13.00;;;12.03;;
12556;SDS011;6344;49.932;8.308;2022-07-25T01:33:03;14.33;;;13.30;;
12556;SDS011;6344;49.932;8.308;2022-07-25T01:35:30;13.37;;;12.27;;
12556;SDS011;6344;49.932;8.308;2022-07-25T01:37:59;14.60;;;13.30;;
12556;SDS011;6344;49.932;8.308;2022-07-25T01:40:26;15.17;;;13.77;;
12556;SDS011;6344;49.932;8.308;2022-07-25T01:42:53;14.30;;;13.13;;
12556;SDS011;6344;49.932;8.308;2022-07-25T01:45:20;13.43;;;12.33;;
12556;SDS011;6344;49.932;8.308;2022-07-25T01:47:47;14.20;;;12.97;;
12556;SDS011;6344;49.932;8.308;2022-07-25T01:50:14;14.50;;;13.27;;
12556;SDS011;6344;49.932;8.308;2022-07-25T01:52:41;14.03;;;12.97;;
12556;SDS011;6344;49.932;8.308;2022-07-25T01:55:10;15.53;;;14.23;;
12556;SDS011;6344;49.932;8.308;2022-07-25T01:57:38;13.43;;;12.30;;
12556;SDS011;6344;49.932;8.308;2022-07-25T02:00:06;14.37;;;13.07;;
12556;SDS011;6344;49.932;8.308;2022-07-25T02:02:34;14.53;;;13.43;;
12556;SDS011;6344;49.932;8.308;2022-07-25T02:05:01;13.50;;;12.47;;
12556;SDS011;6344;49.932;8.308;2022-07-25T02:07:28;12.77;;;11.87;;
12556;SDS011;6344;49.932;8.308;2022-07-25T02:09:55;12.87;;;11.87;;
12556;SDS011;6344;49.932;8.308;2022-07-25T02:12:23;14.20;;;13.10;;
12556;SDS011;6344;49.932;8.308;2022-07-25T02:14:50;14.63;;;13.43;;
12556;SDS011;6344;49.932;8.308;2022-07-25T02:17:18;14.07;;;12.87;;
12556;SDS011;6344;49.932;8.308;2022-07-25T02:19:45;13.77;;;12.77;;
12556;SDS011;6344;49.932;8.308;2022-07-25T02:22:12;14.23;;;13.13;;
12556;SDS011;6344;49.932;8.308;2022-07-25T02:24:39;14.23;;;13.23;;
12556;SDS011;6344;49.932;8.308;2022-07-25T02:27:06;13.20;;;11.90;;
12556;SDS011;6344;49.932;8.308;2022-07-25T02:29:35;14.40;;;13.20;;
12556;SDS011;6344;49.932;8.308;2022-07-25T02:32:02;14.83;;;13.53;;
12556;SDS011;6344;49.932;8.308;2022-07-25T02:34:29;13.60;;;12.27;;
12556;SDS011;6344;49.932;8.308;2022-07-25T02:36:56;12.83;;;11.83;;
12556;SDS011;6344;49.932;8.308;2022-07-25T02:39:23;15.30;;;14.10;;
12556;SDS011;6344;49.932;8.308;2022-07-25T02:41:50;14.63;;;13.47;;
12556;SDS011;6344;49.932;8.308;2022-07-25T02:44:17;14.10;;;13.10;;
12556;SDS011;6344;49.932;8.308;2022-07-25T02:46:46;16.17;;;14.57;;
12556;SDS011;6344;49.932;8.308;2022-07-25T02:49:13;13.43;;;12.47;;
12556;SDS011;6344;49.932;8.308;2022-07-25T02:51:40;14.53;;;13.43;;
12556;SDS011;6344;49.932;8.308;2022-07-25T02:54:07;14.47;;;13.27;;
12556;SDS011;6344;49.932;8.308;2022-07-25T02:56:34;13.90;;;12.90;;
12556;SDS011;6344;49.932;8.308;2022-07-25T02:59:01;15.03;;;13.70;;
12556;SDS011;6344;49.932;8.308;2022-07-25T03:01:28;14.43;;;13.33;;
12556;SDS011;6344;49.932;8.308;2022-07-25T03:03:57;13.53;;;12.53;;
12556;SDS011;6344;49.932;8.308;2022-07-25T03:06:24;14.37;;;13.37;;
12556;SDS011;6344;49.932;8.308;2022-07-25T03:08:51;13.90;;;12.80;;
12556;SDS011;6344;49.932;8.308;2022-07-25T03:11:18;14.37;;;13.37;;
12556;SDS011;6344;49.932;8.308;2022-07-25T03:13:45;13.90;;;12.70;;
12556;SDS011;6344;49.932;8.308;2022-07-25T03:16:12;14.83;;;13.53;;
12556;SDS011;6344;49.932;8.308;2022-07-25T03:18:39;15.10;;;13.90;;
12556;SDS011;6344;49.932;8.308;2022-07-25T03:21:08;14.03;;;12.73;;
12556;SDS011;6344;49.932;8.308;2022-07-25T03:23:35;14.70;;;13.40;;
12556;SDS011;6344;49.932;8.308;2022-07-25T03:26:02;14.33;;;13.10;;
12556;SDS011;6344;49.932;8.308;2022-07-25T03:28:29;15.73;;;14.43;;
12556;SDS011;6344;49.932;8.308;2022-07-25T03:30:56;15.50;;;14.13;;
12556;SDS011;6344;49.932;8.308;2022-07-25T03:33:24;17.00;;;15.60;;
12556;SDS011;6344;49.932;8.308;2022-07-25T03:35:51;17.50;;;15.83;;
12556;SDS011;6344;49.932;8.308;2022-07-25T03:38:19;14.50;;;13.30;;
12556;SDS011;6344;49.932;8.308;2022-07-25T03:40:46;14.90;;;13.63;;
12556;SDS011;6344;49.932;8.308;2022-07-25T03:43:13;15.10;;;14.00;;
12556;SDS011;6344;49.932;8.308;2022-07-25T03:45:40;14.43;;;13.33;;
12556;SDS011;6344;49.932;8.308;2022-07-25T03:48:07;14.63;;;13.30;;
12556;SDS011;6344;49.932;8.308;2022-07-25T03:50:34;15.73;;;14.53;;
12556;SDS011;6344;49.932;8.308;2022-07-25T03:53:01;14.87;;;13.77;;
12556;SDS011;6344;49.932;8.308;2022-07-25T03:55:30;17.70;;;16.03;;
12556;SDS011;6344;49.932;8.308;2022-07-25T03:57:57;15.43;;;14.03;;
12556;SDS011;6344;49.932;8.308;2022-07-25T04:00:24;15.83;;;14.43;;
12556;SDS011;6344;49.932;8.308;2022-07-25T04:02:51;15.40;;;14.10;;
12556;SDS011;6344;49.932;8.308;2022-07-25T04:05:18;17.30;;;15.93;;
12556;SDS011;6344;49.932;8.308;2022-07-25T04:07:45;16.60;;;15.20;;
12556;SDS011;6344;49.932;8.308;2022-07-25T04:10:12;15.90;;;14.60;;
12556;SDS011;6344;49.932;8.308;2022-07-25T04:12:41;15.63;;;14.27;;
12556;SDS011;6344;49.932;8.308;2022-07-25T04:15:08;15.33;;;14.03;;
12556;SDS011;6344;49.932;8.308;2022-07-25T04:17:36;14.93;;;13.80;;
12556;SDS011;6344;49.932;8.308;2022-07-25T04:20:04;14.50;;;13.27;;
12556;SDS011;6344;49.932;8.308;2022-07-25T04:22:31;15.23;;;14.00;;
12556;SDS011;6344;49.932;8.308;2022-07-25T04:24:58;14.50;;;13.40;;
12556;SDS011;6344;49.932;8.308;2022-07-25T04:27:25;16.17;;;14.87;;
12556;SDS011;6344;49.932;8.308;2022-07-25T04:29:54;15.37;;;14.10;;
12556;SDS011;6344;49.932;8.308;2022-07-25T04:32:21;15.27;;;14.07;;
12556;SDS011;6344;49.932;8.308;2022-07-25T04:34:48;16.90;;;15.60;;
12556;SDS011;6344;49.932;8.308;2022-07-25T04:37:16;15.87;;;14.57;;
12556;SDS011;6344;49.932;8.308;2022-07-25T04:39:43;17.20;;;15.80;;
12556;SDS011;6344;49.932;8.308;2022-07-25T04:42:10;17.33;;;15.53;;
12556;SDS011;6344;49.932;8.308;2022-07-25T04:44:37;17.33;;;16.03;;
12556;SDS011;6344;49.932;8.308;2022-07-25T04:47:06;16.73;;;15.43;;
12556;SDS011;6344;49.932;8.308;2022-07-25T04:49:33;16.40;;;15.20;;
12556;SDS011;6344;49.932;8.308;2022-07-25T04:52:00;17.50;;;16.00;;
12556;SDS011;6344;49.932;8.308;2022-07-25T04:54:27;15.63;;;14.30;;
12556;SDS011;6344;49.932;8.308;2022-07-25T04:56:54;15.60;;;14.40;;
12556;SDS011;6344;49.932;8.308;2022-07-25T04:59:21;15.40;;;14.20;;
12556;SDS011;6344;49.932;8.308;2022-07-25T05:01:48;15.93;;;14.67;;
12556;SDS011;6344;49.932;8.308;2022-07-25T05:04:17;15.00;;;13.80;;
12556;SDS011;6344;49.932;8.308;2022-07-25T05:06:44;14.87;;;13.77;;
12556;SDS011;6344;49.932;8.308;2022-07-25T05:09:11;16.23;;;15.03;;
12556;SDS011;6344;49.932;8.308;2022-07-25T05:11:38;16.50;;;15.00;;
12556;SDS011;6344;49.932;8.308;2022-07-25T05:14:05;16.73;;;15.13;;
12556;SDS011;6344;49.932;8.308;2022-07-25T05:16:32;17.13;;;15.80;;
12556;SDS011;6344;49.932;8.308;2022-07-25T05:18:59;17.47;;;15.87;;
12556;SDS011;6344;49.932;8.308;2022-07-25T05:21:27;17.30;;;15.90;;
12556;SDS011;6344;49.932;8.308;2022-07-25T05:23:55;16.70;;;15.47;;
12556;SDS011;6344;49.932;8.308;2022-07-25T05:26:22;15.70;;;14.50;;
12556;SDS011;6344;49.932;8.308;2022-07-25T05:28:49;16.97;;;15.47;;
12556;SDS011;6344;49.932;8.308;2022-07-25T05:31:16;17.20;;;15.77;;
12556;SDS011;6344;49.932;8.308;2022-07-25T05:33:43;16.53;;;15.23;;
12556;SDS011;6344;49.932;8.308;2022-07-25T05:36:10;16.87;;;15.47;;
12556;SDS011;6344;49.932;8.308;2022-07-25T05:38:38;16.83;;;15.57;;
12556;SDS011;6344;49.932;8.308;2022-07-25T05:41:05;16.27;;;15.03;;
12556;SDS011;6344;49.932;8.308;2022-07-25T05:43:33;17.00;;;15.80;;
12556;SDS011;6344;49.932;8.308;2022-07-25T05:46:00;17.70;;;16.40;;
12556;SDS011;6344;49.932;8.308;2022-07-25T05:48:27;18.93;;;17.53;;
12556;SDS011;6344;49.932;8.308;2022-07-25T05:50:54;16.33;;;15.13;;
12556;SDS011;6344;49.932;8.308;2022-07-25T05:53:23;16.80;;;15.60;;
12556;SDS011;6344;49.932;8.308;2022-07-25T05:55:51;16.13;;;14.90;;
12556;SDS011;6344;49.932;8.308;2022-07-25T05:58:18;17.17;;;15.87;;
12556;SDS011;6344;49.932;8.308;2022-07-25T06:00:45;16.63;;;15.23;;
12556;SDS011;6344;49.932;8.308;2022-07-25T06:03:14;16.83;;;15.73;;
12556;SDS011;6344;49.932;8.308;2022-07-25T06:05:42;17.27;;;15.83;;
12556;SDS011;6344;49.932;8.308;2022-07-25T06:08:09;17.40;;;16.20;;
12556;SDS011;6344;49.932;8.308;2022-07-25T06:10:36;16.70;;;15.40;;
12556;SDS011;6344;49.932;8.308;2022-07-25T06:13:04;18.23;;;17.03;;
12556;SDS011;6344;49.932;8.308;2022-07-25T06:15:31;17.27;;;15.77;;
12556;SDS011;6344;49.932;8.308;2022-07-25T06:17:58;17.90;;;16.60;;
12556;SDS011;6344;49.932;8.308;2022-07-25T06:20:26;15.30;;;14.23;;
12556;SDS011;6344;49.932;8.308;2022-07-25T06:22:53;17.10;;;15.87;;
12556;SDS011;6344;49.932;8.308;2022-07-25T06:25:20;17.43;;;16.13;;
12556;SDS011;6344;49.932;8.308;2022-07-25T06:27:47;17.17;;;16.07;;
12556;SDS011;6344;49.932;8.308;2022-07-25T06:30:15;17.10;;;15.90;;
12556;SDS011;6344;49.932;8.308;2022-07-25T06:32:42;17.30;;;15.80;;
12556;SDS011;6344;49.932;8.308;2022-07-25T06:35:09;17.73;;;16.30;;
12556;SDS011;6344;49.932;8.308;2022-07-25T06:37:37;17.23;;;16.13;;
12556;SDS011;6344;49.932;8.308;2022-07-25T06:40:04;16.83;;;15.43;;
12556;SDS011;6344;49.932;8.308;2022-07-25T06:42:32;17.73;;;16.43;;
12556;SDS011;6344;49.932;8.308;2022-07-25T06:45:01;18.00;;;16.70;;
12556;SDS011;6344;49.932;8.308;2022-07-25T06:47:30;16.90;;;15.63;;
12556;SDS011;6344;49.932;8.308;2022-07-25T06:49:58;17.97;;;16.73;;
12556;SDS011;6344;49.932;8.308;2022-07-25T06:52:25;19.73;;;18.20;;
12556;SDS011;6344;49.932;8.308;2022-07-25T06:54:52;18.53;;;17.23;;
12556;SDS011;6344;49.932;8.308;2022-07-25T06:57:19;18.00;;;16.70;;
12556;SDS011;6344;49.932;8.308;2022-07-25T06:59:46;16.60;;;15.50;;
12556;SDS011;6344;49.932;8.308;2022-07-25T07:02:13;17.30;;;16.00;;
12556;SDS011;6344;49.932;8.308;2022-07-25T07:04:41;18.00;;;16.47;;
12556;SDS011;6344;49.932;8.308;2022-07-25T07:07:08;18.30;;;17.00;;
12556;SDS011;6344;49.932;8.308;2022-07-25T07:09:35;18.80;;;17.40;;
12556;SDS011;6344;49.932;8.308;2022-07-25T07:12:03;18.50;;;17.10;;
12556;SDS011;6344;49.932;8.308;2022-07-25T07:14:30;19.60;;;18.20;;
12556;SDS011;6344;49.932;8.308;2022-07-25T07:16:57;17.20;;;16.10;;
12556;SDS011;6344;49.932;8.308;2022-07-25T07:19:24;16.80;;;15.50;;
12556;SDS011;6344;49.932;8.308;2022-07-25T07:21:53;16.63;;;15.20;;
12556;SDS011;6344;49.932;8.308;2022-07-25T07:24:20;16.23;;;15.23;;
12556;SDS011;6344;49.932;8.308;2022-07-25T07:26:47;17.37;;;16.17;;
12556;SDS011;6344;49.932;8.308;2022-07-25T07:29:14;15.63;;;14.57;;
12556;SDS011;6344;49.932;8.308;2022-07-25T07:31:41;16.00;;;14.67;;
12556;SDS011;6344;49.932;8.308;2022-07-25T07:34:08;14.77;;;13.63;;
12556;SDS011;6344;49.932;8.308;2022-07-25T07:36:35;14.57;;;13.77;;
12556;SDS011;6344;49.932;8.308;2022-07-25T07:39:04;15.67;;;14.67;;
12556;SDS011;6344;49.932;8.308;2022-07-25T07:41:31;15.73;;;14.60;;
12556;SDS011;6344;49.932;8.308;2022-07-25T07:43:59;14.80;;;13.90;;
12556;SDS011;6344;49.932;8.308;2022-07-25T07:46:26;15.00;;;13.90;;
12556;SDS011;6344;49.932;8.308;2022-07-25T07:48:53;14.20;;;13.30;;
12556;SDS011;6344;49.932;8.308;2022-07-25T07:51:20;15.40;;;14.40;;
12556;SDS011;6344;49.932;8.308;2022-07-25T07:53:47;14.90;;;13.80;;
12556;SDS011;6344;49.932;8.308;2022-07-25T07:56:33;14.20;;;13.07;;
12556;SDS011;6344;49.932;8.308;2022-07-25T07:59:00;15.47;;;14.27;;
12556;SDS011;6344;49.932;8.308;2022-07-25T08:01:28;14.67;;;13.77;;
12556;SDS011;6344;49.932;8.308;2022-07-25T08:03:56;15.40;;;14.30;;
12556;SDS011;6344;49.932;8.308;2022-07-25T08:06:23;15.07;;;14.10;;
12556;SDS011;6344;49.932;8.308;2022-07-25T08:08:51;16.00;;;14.77;;
12556;SDS011;6344;49.932;8.308;2022-07-25T08:11:18;14.17;;;13.37;;
12556;SDS011;6344;49.932;8.308;2022-07-25T08:13:47;14.47;;;13.57;;
12556;SDS011;6344;49.932;8.308;2022-07-25T08:16:14;16.03;;;14.93;;
12556;SDS011;6344;49.932;8.308;2022-07-25T08:18:41;15.47;;;14.57;;
12556;SDS011;6344;49.932;8.308;2022-07-25T08:21:08;14.63;;;13.73;;
12556;SDS011;6344;49.932;8.308;2022-07-25T08:23:35;14.47;;;13.57;;
12556;SDS011;6344;49.932;8.308;2022-07-25T08:26:03;14.93;;;14.13;;
12556;SDS011;6344;49.932;8.308;2022-07-25T08:28:30;14.27;;;13.47;;
12556;SDS011;6344;49.932;8.308;2022-07-25T08:30:59;16.20;;;15.30;;
12556;SDS011;6344;49.932;8.308;2022-07-25T08:33:26;16.03;;;15.13;;
12556;SDS011;6344;49.932;8.308;2022-07-25T08:35:53;15.77;;;14.83;;
12556;SDS011;6344;49.932;8.308;2022-07-25T08:38:23;16.23;;;15.23;;
12556;SDS011;6344;49.932;8.308;2022-07-25T08:40:50;14.23;;;13.43;;
12556;SDS011;6344;49.932;8.308;2022-07-25T08:43:17;14.47;;;13.47;;
12556;SDS011;6344;49.932;8.308;2022-07-25T08:45:45;15.00;;;14.17;;
12556;SDS011;6344;49.932;8.308;2022-07-25T08:48:15;14.63;;;13.67;;
12556;SDS011;6344;49.932;8.308;2022-07-25T08:50:42;13.90;;;13.00;;
12556;SDS011;6344;49.932;8.308;2022-07-25T08:53:10;14.93;;;13.90;;
12556;SDS011;6344;49.932;8.308;2022-07-25T08:55:37;13.80;;;13.00;;
12556;SDS011;6344;49.932;8.308;2022-07-25T08:58:06;14.70;;;13.80;;
12556;SDS011;6344;49.932;8.308;2022-07-25T09:00:32;14.97;;;14.03;;
12556;SDS011;6344;49.932;8.308;2022-07-25T09:03:00;14.70;;;13.90;;
12556;SDS011;6344;49.932;8.308;2022-07-25T09:05:29;14.43;;;13.33;;
12556;SDS011;6344;49.932;8.308;2022-07-25T09:08:04;16.17;;;14.97;;
12556;SDS011;6344;49.932;8.308;2022-07-25T09:10:32;16.47;;;15.47;;
12556;SDS011;6344;49.932;8.308;2022-07-25T09:13:01;14.37;;;13.40;;
12556;SDS011;6344;49.932;8.308;2022-07-25T09:15:32;14.30;;;13.20;;
12556;SDS011;6344;49.932;8.308;2022-07-25T09:18:00;16.07;;;15.27;;
12556;SDS011;6344;49.932;8.308;2022-07-25T09:20:37;15.10;;;14.30;;
12556;SDS011;6344;49.932;8.308;2022-07-25T09:23:05;15.40;;;14.60;;
12556;SDS011;6344;49.932;8.308;2022-07-25T09:25:33;15.60;;;14.70;;
12556;SDS011;6344;49.932;8.308;2022-07-25T09:28:10;15.73;;;14.77;;
12556;SDS011;6344;49.932;8.308;2022-07-25T09:30:37;15.50;;;14.70;;
12556;SDS011;6344;49.932;8.308;2022-07-25T09:33:05;14.63;;;13.73;;
12556;SDS011;6344;49.932;8.308;2022-07-25T09:35:32;14.17;;;13.47;;
12556;SDS011;6344;49.932;8.308;2022-07-25T09:38:07;15.27;;;14.27;;
12556;SDS011;6344;49.932;8.308;2022-07-25T09:40:35;15.00;;;14.30;;
12556;SDS011;6344;49.932;8.308;2022-07-25T09:43:02;15.47;;;14.40;;
12556;SDS011;6344;49.932;8.308;2022-07-25T09:45:29;15.20;;;14.30;;
12556;SDS011;6344;49.932;8.308;2022-07-25T09:47:57;15.73;;;14.87;;
12556;SDS011;6344;49.932;8.308;2022-07-25T09:50:25;15.60;;;14.60;;
12556;SDS011;6344;49.932;8.308;2022-07-25T09:52:54;15.37;;;14.17;;
12556;SDS011;6344;49.932;8.308;2022-07-25T09:55:25;15.63;;;14.40;;
12556;SDS011;6344;49.932;8.308;2022-07-25T09:57:52;15.17;;;14.17;;
12556;SDS011;6344;49.932;8.308;2022-07-25T10:00:21;15.07;;;14.27;;
12556;SDS011;6344;49.932;8.308;2022-07-25T10:02:51;16.20;;;15.10;;
12556;SDS011;6344;49.932;8.308;2022-07-25T10:05:29;15.10;;;14.07;;
12556;SDS011;6344;49.932;8.308;2022-07-25T10:08:04;15.63;;;14.63;;
12556;SDS011;6344;49.932;8.308;2022-07-25T10:10:37;15.10;;;14.00;;
12556;SDS011;6344;49.932;8.308;2022-07-25T10:13:05;16.20;;;15.20;;
12556;SDS011;6344;49.932;8.308;2022-07-25T10:15:41;15.67;;;14.77;;
12556;SDS011;6344;49.932;8.308;2022-07-25T10:18:13;15.37;;;14.37;;
12556;SDS011;6344;49.932;8.308;2022-07-25T10:20:41;16.90;;;15.87;;
12556;SDS011;6344;49.932;8.308;2022-07-25T10:23:18;16.90;;;15.93;;
12556;SDS011;6344;49.932;8.308;2022-07-25T10:25:59;15.40;;;14.40;;
12556;SDS011;6344;49.932;8.308;2022-07-25T10:28:34;15.83;;;14.83;;
12556;SDS011;6344;49.932;8.308;2022-07-25T10:31:02;15.57;;;14.77;;
12556;SDS011;6344;49.932;8.308;2022-07-25T10:33:40;16.53;;;15.53;;
12556;SDS011;6344;49.932;8.308;2022-07-25T10:36:07;16.10;;;15.20;;
12556;SDS011;6344;49.932;8.308;2022-07-25T10:38:37;14.67;;;13.80;;
12556;SDS011;6344;49.932;8.308;2022-07-25T10:41:06;14.00;;;13.30;;
12556;SDS011;6344;49.932;8.308;2022-07-25T10:43:35;15.50;;;14.60;;
12556;SDS011;6344;49.932;8.308;2022-07-25T10:46:09;15.37;;;14.40;;
12556;SDS011;6344;49.932;8.308;2022-07-25T10:48:38;14.57;;;13.77;;
12556;SDS011;6344;49.932;8.308;2022-07-25T10:51:06;14.90;;;14.10;;
12556;SDS011;6344;49.932;8.308;2022-07-25T10:53:35;14.83;;;13.93;;
12556;SDS011;6344;49.932;8.308;2022-07-25T10:56:04;12.90;;;12.20;;
12556;SDS011;6344;49.932;8.308;2022-07-25T10:58:40;10.60;;;10.00;;
12556;SDS011;6344;49.932;8.308;2022-07-25T11:01:08;8.53;;;8.13;;
12556;SDS011;6344;49.932;8.308;2022-07-25T11:03:34;8.80;;;8.40;;
12556;SDS011;6344;49.932;8.308;2022-07-25T11:06:01;9.03;;;8.53;;
12556;SDS011;6344;49.932;8.308;2022-07-25T11:08:31;7.40;;;6.83;;
12556;SDS011;6344;49.932;8.308;2022-07-25T11:10:59;8.40;;;8.00;;
12556;SDS011;6344;49.932;8.308;2022-07-25T11:13:27;8.67;;;8.00;;
12556;SDS011;6344;49.932;8.308;2022-07-25T11:15:56;8.33;;;7.73;;
12556;SDS011;6344;49.932;8.308;2022-07-25T11:18:29;7.67;;;7.37;;
12556;SDS011;6344;49.932;8.308;2022-07-25T11:20:58;8.47;;;8.07;;
12556;SDS011;6344;49.932;8.308;2022-07-25T11:23:26;8.57;;;8.07;;
12556;SDS011;6344;49.932;8.308;2022-07-25T11:26:02;8.50;;;8.10;;
12556;SDS011;6344;49.932;8.308;2022-07-25T11:28:37;8.60;;;8.10;;
12556;SDS011;6344;49.932;8.308;2022-07-25T11:31:04;7.97;;;7.67;;
12556;SDS011;6344;49.932;8.308;2022-07-25T11:33:31;8.37;;;7.83;;
12556;SDS011;6344;49.932;8.308;2022-07-25T11:35:58;8.17;;;7.77;;
12556;SDS011;6344;49.932;8.308;2022-07-25T11:38:25;8.10;;;7.70;;
12556;SDS011;6344;49.932;8.308;2022-07-25T11:40:52;8.60;;;8.10;;
12556;SDS011;6344;49.932;8.308;2022-07-25T11:43:19;8.90;;;8.30;;
12556;SDS011;6344;49.932;8.308;2022-07-25T11:45:55;8.90;;;8.40;;
12556;SDS011;6344;49.932;8.308;2022-07-25T11:48:34;7.50;;;7.10;;
12556;SDS011;6344;49.932;8.308;2022-07-25T11:51:09;8.73;;;8.23;;
12556;SDS011;6344;49.932;8.308;2022-07-25T11:53:43;8.20;;;7.70;;
12556;SDS011;6344;49.932;8.308;2022-07-25T11:56:15;7.80;;;7.40;;
12556;SDS011;6344;49.932;8.308;2022-07-25T11:58:48;9.47;;;8.90;;
12556;SDS011;6344;49.932;8.308;2022-07-25T12:01:24;8.83;;;8.13;;
12556;SDS011;6344;49.932;8.308;2022-07-25T12:04:05;9.20;;;8.50;;
12556;SDS011;6344;49.932;8.308;2022-07-25T12:06:33;8.37;;;7.97;;
12556;SDS011;6344;49.932;8.308;2022-07-25T12:09:08;9.33;;;8.70;;
12556;SDS011;6344;49.932;8.308;2022-07-25T12:11:35;8.67;;;8.27;;
12556;SDS011;6344;49.932;8.308;2022-07-25T12:14:02;9.03;;;8.53;;
12556;SDS011;6344;49.932;8.308;2022-07-25T12:16:31;9.00;;;8.50;;
12556;SDS011;6344;49.932;8.308;2022-07-25T12:18:58;8.10;;;7.70;;
12556;SDS011;6344;49.932;8.308;2022-07-25T12:21:25;8.50;;;7.90;;
12556;SDS011;6344;49.932;8.308;2022-07-25T12:23:52;10.23;;;9.60;;
12556;SDS011;6344;49.932;8.308;2022-07-25T12:26:19;9.83;;;9.33;;
12556;SDS011;6344;49.932;8.308;2022-07-25T12:28:46;8.50;;;8.00;;
12556;SDS011;6344;49.932;8.308;2022-07-25T12:31:12;8.77;;;8.33;;
12556;SDS011;6344;49.932;8.308;2022-07-25T12:33:40;9.13;;;8.63;;
12556;SDS011;6344;49.932;8.308;2022-07-25T12:36:10;9.30;;;8.80;;
12556;SDS011;6344;49.932;8.308;2022-07-25T12:38:37;8.57;;;7.97;;
12556;SDS011;6344;49.932;8.308;2022-07-25T12:41:04;9.23;;;8.73;;
12556;SDS011;6344;49.932;8.308;2022-07-25T12:43:31;8.50;;;8.10;;
12556;SDS011;6344;49.932;8.308;2022-07-25T12:45:57;9.70;;;8.93;;
12556;SDS011;6344;49.932;8.308;2022-07-25T12:48:24;9.17;;;8.50;;
12556;SDS011;6344;49.932;8.308;2022-07-25T12:50:52;9.37;;;8.77;;
12556;SDS011;6344;49.932;8.308;2022-07-25T12:53:19;10.30;;;9.60;;
12556;SDS011;6344;49.932;8.308;2022-07-25T12:55:46;9.17;;;8.60;;
12556;SDS011;6344;49.932;8.308;2022-07-25T12:58:12;9.77;;;9.07;;
12556;SDS011;6344;49.932;8.308;2022-07-25T13:00:41;9.67;;;8.77;;
12556;SDS011;6344;49.932;8.308;2022-07-25T13:03:08;8.87;;;8.27;;
12556;SDS011;6344;49.932;8.308;2022-07-25T13:05:35;9.10;;;8.50;;
12556;SDS011;6344;49.932;8.308;2022-07-25T13:08:04;9.63;;;9.03;;
12556;SDS011;6344;49.932;8.308;2022-07-25T13:10:31;8.40;;;7.97;;
12556;SDS011;6344;49.932;8.308;2022-07-25T13:12:58;9.17;;;8.77;;
12556;SDS011;6344;49.932;8.308;2022-07-25T13:15:24;9.30;;;8.80;;
12556;SDS011;6344;49.932;8.308;2022-07-25T13:17:52;8.70;;;8.20;;
12556;SDS011;6344;49.932;8.308;2022-07-25T13:20:19;8.13;;;7.63;;
12556;SDS011;6344;49.932;8.308;2022-07-25T13:22:45;8.97;;;8.40;;
12556;SDS011;6344;49.932;8.308;2022-07-25T13:25:13;9.60;;;9.00;;
12556;SDS011;6344;49.932;8.308;2022-07-25T13:27:40;9.93;;;9.23;;
12556;SDS011;6344;49.932;8.308;2022-07-25T13:30:07;8.90;;;8.40;;
12556;SDS011;6344;49.932;8.308;2022-07-25T13:32:34;9.10;;;8.60;;
12556;SDS011;6344;49.932;8.308;2022-07-25T13:35:01;10.33;;;9.33;;
12556;SDS011;6344;49.932;8.308;2022-07-25T13:37:28;8.30;;;7.80;;
12556;SDS011;6344;49.932;8.308;2022-07-25T13:39:56;10.07;;;9.33;;
12556;SDS011;6344;49.932;8.308;2022-07-25T13:42:24;10.10;;;9.50;;
12556;SDS011;6344;49.932;8.308;2022-07-25T13:44:51;10.60;;;10.00;;
12556;SDS011;6344;49.932;8.308;2022-07-25T13:47:18;10.67;;;10.13;;
12556;SDS011;6344;49.932;8.308;2022-07-25T13:49:44;11.13;;;10.23;;
12556;SDS011;6344;49.932;8.308;2022-07-25T13:52:11;10.10;;;9.40;;
12556;SDS011;6344;49.932;8.308;2022-07-25T13:54:38;10.77;;;9.97;;
12556;SDS011;6344;49.932;8.308;2022-07-25T13:57:05;10.87;;;10.27;;
12556;SDS011;6344;49.932;8.308;2022-07-25T13:59:34;9.40;;;8.70;;
12556;SDS011;6344;49.932;8.308;2022-07-25T14:02:01;10.87;;;9.87;;
12556;SDS011;6344;49.932;8.308;2022-07-25T14:04:28;10.60;;;9.90;;
12556;SDS011;6344;49.932;8.308;2022-07-25T14:06:55;10.67;;;9.97;;
12556;SDS011;6344;49.932;8.308;2022-07-25T14:09:22;11.50;;;10.90;;
12556;SDS011;6344;49.932;8.308;2022-07-25T14:11:48;10.33;;;9.77;;
12556;SDS011;6344;49.932;8.308;2022-07-25T14:14:15;11.73;;;10.87;;
12556;SDS011;6344;49.932;8.308;2022-07-25T14:16:44;10.97;;;10.17;;
12556;SDS011;6344;49.932;8.308;2022-07-25T14:19:10;11.87;;;11.17;;
12556;SDS011;6344;49.932;8.308;2022-07-25T14:21:38;11.03;;;10.20;;
12556;SDS011;6344;49.932;8.308;2022-07-25T14:24:05;10.30;;;9.70;;
12556;SDS011;6344;49.932;8.308;2022-07-25T14:26:32;11.50;;;10.80;;
12556;SDS011;6344;49.932;8.308;2022-07-25T14:28:59;10.73;;;9.87;;
12556;SDS011;6344;49.932;8.308;2022-07-25T14:31:26;10.63;;;10.03;;
12556;SDS011;6344;49.932;8.308;2022-07-25T14:33:54;10.90;;;10.20;;
12556;SDS011;6344;49.932;8.308;2022-07-25T14:36:22;10.50;;;10.00;;
12556;SDS011;6344;49.932;8.308;2022-07-25T14:38:49;9.00;;;8.40;;
12556;SDS011;6344;49.932;8.308;2022-07-25T14:41:16;10.40;;;9.80;;
12556;SDS011;6344;49.932;8.308;2022-07-25T14:43:43;10.30;;;9.70;;
12556;SDS011;6344;49.932;8.308;2022-07-25T14:46:10;10.20;;;9.57;;